createdAt,value
2019-06-19T00:00:22.559Z,11.53
2019-06-19T00:02:53.415Z,11.13
2019-06-19T00:05:24.336Z,11.63
2019-06-19T00:07:55.112Z,11.23
2019-06-19T00:10:25.905Z,11.33
2019-06-19T00:12:56.669Z,10.87
2019-06-19T00:15:27.479Z,11.73
2019-06-19T00:17:58.263Z,11.13
2019-06-19T00:20:29.039Z,11.30
2019-06-19T00:22:59.833Z,11.07
2019-06-19T00:25:33.352Z,10.90
2019-06-19T00:28:03.530Z,10.60
2019-06-19T00:30:34.315Z,11.50
2019-06-19T00:33:05.088Z,11.50
2019-06-19T00:35:35.871Z,11.00
2019-06-19T00:38:06.643Z,11.00
2019-06-19T00:40:37.450Z,11.17
2019-06-19T00:43:10.840Z,11.27
2019-06-19T00:45:41.097Z,11.40
2019-06-19T00:48:12.240Z,11.53
2019-06-19T00:50:42.992Z,10.90
2019-06-19T00:53:13.761Z,12.23
2019-06-19T00:55:46.428Z,11.43
2019-06-19T00:58:17.230Z,11.77
2019-06-19T01:00:48.004Z,11.00
2019-06-19T09:21:42.491Z,10.50
2019-06-19T09:24:13.133Z,10.30
2019-06-19T09:26:43.881Z,11.50
2019-06-19T09:29:14.510Z,11.00
2019-06-19T09:31:45.149Z,10.83
2019-06-19T09:34:15.786Z,10.20
2019-06-19T09:36:46.430Z,11.63
2019-06-19T09:39:17.058Z,10.63
2019-06-19T09:41:47.715Z,11.20
2019-06-19T09:44:18.345Z,11.70
2019-06-19T09:46:49.001Z,10.80
2019-06-19T09:49:19.644Z,10.53
2019-06-19T09:51:50.298Z,11.50
2019-06-19T09:54:20.935Z,10.60
2019-06-19T09:56:51.585Z,11.30
2019-06-19T09:59:22.741Z,10.60
2019-06-19T10:01:53.378Z,10.60
2019-06-19T10:04:24.013Z,10.43
2019-06-19T10:06:54.662Z,10.63
2019-06-19T10:09:25.316Z,12.10
2019-06-19T10:11:55.970Z,10.30
2019-06-19T10:14:26.626Z,9.53
2019-06-19T10:16:57.280Z,9.77
2019-06-19T10:19:27.926Z,9.60
2019-06-19T10:21:58.574Z,9.80
2019-06-19T10:24:29.229Z,9.33
2019-06-19T10:26:59.887Z,9.53
2019-06-19T10:29:30.519Z,9.20
2019-06-19T10:32:01.294Z,8.43
2019-06-19T10:34:32.024Z,9.60
2019-06-19T10:37:02.784Z,9.67
2019-06-19T10:39:33.448Z,9.80
2019-06-19T10:42:04.078Z,10.30
2019-06-19T10:44:34.735Z,10.50
2019-06-19T10:47:05.387Z,9.67
2019-06-19T10:49:36.019Z,9.00
2019-06-19T10:52:06.681Z,10.07
2019-06-19T10:54:37.315Z,9.50
2019-06-19T10:57:07.958Z,9.63
2019-06-19T10:59:38.623Z,9.70
2019-06-19T11:02:09.287Z,9.10
2019-06-19T11:04:39.966Z,9.83
2019-06-19T11:07:10.707Z,9.80
2019-06-19T11:09:41.435Z,9.60
2019-06-19T11:12:12.101Z,9.90
2019-06-19T11:14:42.749Z,9.77
2019-06-19T11:17:13.395Z,10.23
2019-06-19T11:19:44.031Z,9.37
2019-06-19T11:22:14.723Z,9.53
2019-06-19T11:24:45.436Z,9.90
2019-06-19T11:27:16.163Z,9.43
2019-06-19T11:29:46.813Z,8.97
2019-06-19T11:32:17.454Z,8.80
2019-06-19T11:34:48.084Z,9.97
2019-06-19T11:37:18.745Z,9.17
2019-06-19T11:39:49.417Z,8.90
2019-06-19T11:42:20.223Z,8.90
2019-06-19T11:44:50.882Z,9.20
2019-06-19T11:47:21.613Z,9.97
2019-06-19T11:49:52.302Z,9.07
2019-06-19T11:52:23.086Z,9.13
2019-06-19T11:54:53.731Z,8.70
2019-06-19T11:57:24.410Z,9.20
2019-06-19T11:59:55.176Z,8.80
2019-06-19T12:02:25.909Z,9.77
2019-06-19T12:04:56.537Z,9.63
2019-06-19T12:07:27.173Z,9.20
2019-06-19T12:09:57.831Z,9.70
2019-06-19T12:12:28.466Z,9.90
2019-06-19T12:14:59.165Z,10.27
2019-06-19T12:17:29.806Z,9.27
2019-06-19T12:20:00.459Z,10.17
2019-06-19T12:22:34.833Z,9.83
2019-06-19T12:25:05.839Z,9.30
2019-06-19T12:27:36.688Z,9.03
2019-06-19T12:30:07.753Z,8.87
2019-06-19T12:32:38.698Z,8.87
2019-06-19T12:35:13.159Z,8.60
2019-06-19T12:37:43.963Z,9.10
2019-06-19T12:40:14.625Z,9.20
2019-06-19T12:42:45.390Z,9.60
2019-06-19T12:45:16.308Z,9.43
2019-06-19T12:47:46.965Z,9.30
2019-06-19T12:50:18.310Z,9.80
2019-06-19T12:52:48.946Z,9.27
2019-06-19T12:55:19.686Z,10.30
2019-06-19T12:57:50.319Z,10.40
2019-06-19T13:00:21.183Z,10.07
2019-06-19T13:02:52.011Z,9.97
2019-06-19T13:05:22.987Z,10.30
2019-06-19T13:07:53.705Z,9.97
2019-06-19T13:10:24.428Z,9.33
2019-06-19T13:12:55.090Z,9.40
2019-06-19T13:15:25.738Z,9.87
2019-06-19T13:17:56.702Z,9.73
2019-06-19T13:20:27.354Z,9.60
2019-06-19T13:22:58.007Z,10.10
2019-06-19T13:25:28.639Z,9.57
2019-06-19T13:27:59.310Z,9.77
2019-06-19T13:30:31.170Z,9.73
2019-06-19T13:33:01.946Z,10.10
2019-06-19T13:35:32.585Z,9.30
2019-06-19T13:38:03.323Z,9.80
2019-06-19T13:40:33.970Z,8.80
2019-06-19T13:43:04.600Z,8.60
2019-06-19T13:45:35.238Z,8.83
2019-06-19T13:48:06.535Z,8.90
2019-06-19T13:50:37.324Z,8.70
2019-06-19T13:53:08.077Z,9.00
2019-06-19T13:55:38.740Z,9.17
2019-06-19T13:58:09.468Z,8.67
2019-06-19T14:00:40.218Z,9.40
2019-06-19T14:03:10.855Z,8.50
2019-06-19T14:05:42.025Z,8.93
2019-06-19T14:08:12.657Z,8.50
2019-06-19T14:10:43.319Z,7.77
2019-06-19T14:13:13.970Z,8.13
2019-06-19T14:15:44.719Z,8.23
2019-06-19T14:18:15.374Z,8.50
2019-06-19T14:20:46.019Z,8.70
2019-06-19T14:23:16.675Z,8.23
2019-06-19T14:25:47.297Z,8.20
2019-06-19T14:28:18.040Z,8.63
2019-06-19T14:30:48.739Z,8.20
2019-06-19T14:33:19.379Z,9.00
2019-06-19T14:35:50.013Z,8.33
2019-06-19T14:38:20.672Z,8.73
2019-06-19T14:40:51.300Z,9.30
2019-06-19T14:43:22.042Z,9.00
2019-06-19T14:45:52.763Z,9.07
2019-06-19T14:48:23.464Z,8.67
2019-06-19T14:50:54.157Z,8.50
2019-06-19T14:53:24.821Z,8.63
2019-06-19T14:55:55.458Z,8.90
2019-06-19T14:58:26.108Z,8.43
2019-06-19T15:00:56.836Z,8.10
2019-06-19T15:03:27.474Z,8.20
2019-06-19T15:05:58.184Z,8.27
2019-06-19T15:08:29.000Z,8.43
2019-06-19T15:10:59.616Z,8.50
2019-06-19T15:13:30.346Z,7.70
2019-06-19T15:16:01.115Z,7.97
2019-06-19T15:18:32.853Z,8.30
2019-06-19T15:21:03.482Z,8.00
2019-06-19T15:23:34.137Z,8.17
2019-06-19T15:26:04.779Z,8.27
2019-06-19T15:28:35.430Z,8.50
2019-06-19T15:31:06.066Z,7.70
2019-06-19T15:33:36.830Z,7.60
2019-06-19T15:36:08.554Z,8.40
2019-06-19T15:38:39.202Z,8.43
2019-06-19T15:41:09.838Z,9.30
2019-06-19T15:43:40.506Z,7.73
2019-06-19T15:46:11.238Z,8.40
2019-06-19T15:48:42.129Z,8.17
2019-06-19T15:51:12.962Z,7.70
2019-06-19T15:53:43.609Z,7.67
2019-06-19T15:56:14.243Z,8.43
2019-06-19T15:58:44.891Z,9.10
2019-06-19T16:01:15.518Z,7.97
2019-06-19T16:03:46.163Z,8.10
2019-06-19T16:06:16.777Z,8.50
2019-06-19T16:08:47.413Z,8.30
2019-06-19T16:11:18.051Z,8.70
2019-06-19T16:13:48.689Z,8.60
2019-06-19T16:16:19.346Z,9.10
2019-06-19T16:18:49.984Z,8.57
2019-06-19T16:21:20.613Z,8.07
2019-06-19T16:23:51.270Z,8.80
2019-06-19T16:26:21.912Z,8.83
2019-06-19T16:28:52.569Z,8.77
2019-06-19T16:31:23.203Z,8.63
2019-06-19T16:33:53.947Z,8.70
2019-06-19T16:36:24.633Z,8.30
2019-06-19T16:38:55.346Z,7.80
2019-06-19T16:41:25.982Z,8.20
2019-06-19T16:43:56.638Z,8.60
2019-06-19T16:46:27.286Z,8.43
2019-06-19T16:48:57.930Z,8.50
2019-06-19T16:51:28.567Z,8.50
2019-06-19T16:53:59.223Z,8.33
2019-06-19T16:56:29.868Z,8.27
2019-06-19T16:59:00.507Z,8.57
2019-06-19T17:01:31.146Z,8.73
2019-06-19T17:04:01.833Z,9.23
2019-06-19T17:06:32.536Z,8.53
2019-06-19T17:09:05.199Z,8.80
2019-06-19T17:11:35.936Z,8.60
2019-06-19T17:14:06.571Z,8.70
2019-06-19T17:16:37.208Z,8.70
2019-06-19T17:19:07.841Z,8.00
2019-06-19T17:21:50.795Z,8.23
2019-06-19T17:24:11.024Z,7.97
2019-06-19T17:26:41.685Z,8.30
2019-06-19T17:29:12.318Z,8.03
2019-06-19T17:31:42.947Z,8.30
2019-06-19T17:34:13.607Z,8.20
2019-06-19T17:36:44.240Z,8.30
2019-06-19T17:39:21.992Z,8.70
2019-06-19T17:41:47.415Z,8.83
2019-06-19T17:44:18.067Z,8.27
2019-06-19T17:46:48.801Z,8.27
2019-06-19T17:49:19.450Z,9.37
2019-06-19T17:51:50.189Z,10.00
2019-06-19T17:54:20.828Z,8.80
2019-06-19T17:56:51.493Z,9.00
2019-06-19T17:59:22.139Z,9.00
2019-06-19T18:01:52.771Z,8.47
2019-06-19T18:04:23.407Z,8.37
2019-06-19T18:06:54.042Z,8.93
2019-06-19T18:09:37.617Z,8.37
2019-06-19T18:11:57.279Z,8.70
2019-06-19T18:14:27.965Z,9.20
2019-06-19T18:16:58.582Z,8.70
2019-06-19T18:19:29.218Z,9.00
2019-06-19T18:21:59.863Z,8.60
2019-06-19T18:24:30.522Z,8.43
2019-06-19T18:27:01.148Z,8.70
2019-06-19T18:29:31.790Z,8.60
2019-06-19T18:32:02.413Z,8.60
2019-06-19T18:34:33.070Z,9.03
2019-06-19T18:37:03.698Z,9.37
2019-06-19T18:39:34.354Z,9.90
2019-06-19T18:42:04.993Z,10.40
2019-06-19T18:44:35.635Z,10.67
2019-06-19T18:47:06.277Z,10.20
2019-06-19T18:49:36.916Z,9.70
2019-06-19T18:52:07.564Z,9.80
2019-06-19T18:54:38.206Z,10.40
2019-06-19T18:57:08.972Z,11.17
2019-06-19T18:59:39.709Z,11.13
2019-06-19T19:02:10.360Z,10.80
2019-06-19T19:04:40.994Z,10.63
2019-06-19T19:07:11.626Z,10.33
2019-06-19T19:09:42.268Z,11.37
2019-06-19T19:12:12.954Z,10.87
2019-06-19T19:14:43.619Z,10.70
2019-06-19T19:17:14.268Z,10.80
2019-06-19T19:19:45.026Z,10.40
2019-06-19T19:22:15.684Z,11.10
2019-06-19T19:24:46.333Z,11.23
2019-06-19T19:27:16.994Z,10.87
2019-06-19T19:29:47.618Z,10.40
2019-06-19T19:32:18.311Z,9.50
2019-06-19T19:34:49.016Z,10.03
2019-06-19T19:37:19.677Z,10.93
2019-06-19T19:39:50.316Z,10.27
2019-06-19T19:42:20.953Z,11.03
2019-06-19T19:44:51.613Z,10.90
2019-06-19T19:47:22.307Z,11.37
2019-06-19T19:49:52.943Z,10.50
2019-06-19T19:52:23.586Z,10.30
2019-06-19T19:54:54.238Z,10.40
2019-06-19T19:57:24.943Z,11.33
2019-06-19T19:59:58.916Z,10.70
2019-06-19T20:02:28.155Z,10.43
2019-06-19T20:04:58.802Z,10.93
2019-06-19T20:07:29.497Z,10.87
2019-06-19T20:10:00.149Z,11.30
2019-06-19T20:12:30.893Z,10.87
2019-06-19T20:15:02.234Z,10.17
2019-06-19T20:17:32.889Z,11.00
2019-06-19T20:20:04.910Z,10.67
2019-06-19T20:22:35.644Z,11.47
2019-06-19T20:25:06.891Z,11.20
2019-06-19T20:27:37.544Z,11.50
2019-06-19T20:30:09.080Z,11.13
2019-06-19T20:32:46.817Z,11.37
2019-06-19T20:35:13.623Z,10.87
2019-06-19T20:37:44.526Z,11.27
2019-06-19T20:40:15.794Z,11.57
2019-06-19T20:42:46.438Z,10.93
2019-06-19T20:45:17.195Z,12.23
2019-06-19T20:47:48.049Z,13.13
2019-06-19T20:50:19.057Z,11.97
2019-06-19T20:52:55.980Z,11.50
2019-06-19T20:55:22.249Z,11.57
2019-06-19T20:57:52.886Z,11.43
2019-06-19T21:00:23.925Z,11.67
2019-06-19T21:02:54.886Z,11.63
2019-06-19T21:05:25.537Z,12.00
2019-06-19T21:07:56.193Z,11.73
2019-06-19T21:10:26.866Z,12.33
2019-06-19T21:12:57.521Z,12.43
2019-06-19T21:15:28.186Z,12.10
2019-06-19T21:17:58.826Z,10.67
2019-06-19T21:20:29.463Z,11.43
2019-06-19T21:23:00.504Z,11.90
2019-06-19T21:25:31.227Z,12.37
2019-06-19T21:28:01.863Z,11.17
2019-06-19T21:30:32.498Z,11.23
2019-06-19T21:33:03.628Z,10.60
2019-06-19T21:35:34.294Z,11.43
2019-06-19T21:38:08.124Z,11.37
2019-06-19T21:40:38.808Z,11.93
2019-06-19T21:43:09.909Z,11.43
2019-06-19T21:45:40.676Z,11.27
2019-06-19T21:48:11.733Z,12.27
2019-06-19T21:50:42.363Z,11.60
2019-06-19T21:53:13.000Z,11.13
2019-06-19T21:55:43.628Z,11.40
2019-06-19T21:58:14.266Z,11.80
2019-06-19T22:00:49.506Z,11.70
2019-06-19T22:03:20.150Z,11.67
2019-06-19T22:05:52.846Z,12.20
2019-06-19T22:08:23.485Z,11.57
2019-06-19T22:10:54.114Z,12.87
2019-06-19T22:13:24.775Z,11.17
2019-06-19T22:15:55.449Z,12.03
2019-06-19T22:18:26.225Z,11.50
2019-06-19T22:20:56.846Z,10.93
2019-06-19T22:23:27.490Z,11.60
2019-06-19T22:25:58.153Z,12.23
2019-06-19T22:28:28.790Z,12.00
2019-06-19T22:31:00.207Z,11.60
2019-06-19T22:33:30.986Z,11.73
2019-06-19T22:36:01.651Z,11.77
2019-06-19T22:38:32.359Z,11.77
2019-06-19T22:41:05.594Z,11.80
2019-06-19T22:43:35.651Z,11.13
2019-06-19T22:46:06.306Z,11.57
2019-06-19T22:48:36.943Z,11.47
2019-06-19T22:51:07.573Z,11.20
2019-06-19T22:53:38.210Z,11.70
2019-06-19T22:56:08.850Z,11.73
2019-06-19T22:58:39.504Z,11.73
2019-06-19T23:01:10.142Z,11.23
2019-06-19T23:03:41.405Z,11.67
2019-06-19T23:06:18.022Z,12.50
2019-06-19T23:08:48.662Z,11.23
2019-06-19T23:11:19.301Z,11.33
2019-06-19T23:13:49.945Z,11.73
2019-06-19T23:16:20.602Z,11.70
2019-06-19T23:18:51.249Z,11.50
2019-06-19T23:21:21.878Z,11.73
2019-06-19T23:23:52.514Z,11.60
2019-06-19T23:26:23.154Z,11.80
2019-06-19T23:28:53.798Z,12.33
2019-06-19T23:31:24.430Z,11.67
2019-06-19T23:33:55.177Z,11.47
2019-06-19T23:36:25.803Z,11.97
2019-06-19T23:38:56.446Z,11.60
2019-06-19T23:41:27.085Z,12.60
2019-06-19T23:43:57.746Z,12.33
2019-06-19T23:46:28.399Z,11.30
2019-06-19T23:48:59.042Z,12.57
2019-06-19T23:51:29.673Z,13.27
2019-06-19T23:54:00.330Z,12.20
2019-06-19T23:56:30.958Z,12.00
2019-06-19T23:59:01.610Z,12.03
